sensor_id;sensor_type;location;lat;lon;timestamp;pressure;altitude;pressure_sealevel;temperature;humidity
21658;BME280;10990;48.174;9.782;2022-10-31T00:00:28;92747.69;;;10.42;100.00
21658;BME280;10990;48.174;9.782;2022-10-31T00:02:54;92749.16;;;10.38;100.00
21658;BME280;10990;48.174;9.782;2022-10-31T00:05:21;92746.44;;;10.44;100.00
21658;BME280;10990;48.174;9.782;2022-10-31T00:07:51;92761.63;;;10.49;100.00
21658;BME280;10990;48.174;9.782;2022-10-31T00:10:18;92767.66;;;10.56;100.00
21658;BME280;10990;48.174;9.782;2022-10-31T00:12:46;92787.59;;;10.52;100.00
21658;BME280;10990;48.174;9.782;2022-10-31T00:15:13;92809.03;;;10.44;100.00
21658;BME280;10990;48.174;9.782;2022-10-31T00:17:40;92821.44;;;10.18;100.00
21658;BME280;10990;48.174;9.782;2022-10-31T00:20:08;92828.19;;;10.14;100.00
21658;BME280;10990;48.174;9.782;2022-10-31T00:22:35;92839.75;;;10.13;100.00
21658;BME280;10990;48.174;9.782;2022-10-31T00:25:02;92808.59;;;10.28;100.00
21658;BME280;10990;48.174;9.782;2022-10-31T00:27:29;92811.16;;;10.35;100.00
21658;BME280;10990;48.174;9.782;2022-10-31T00:29:57;92836.19;;;10.26;100.00
21658;BME280;10990;48.174;9.782;2022-10-31T00:32:24;92840.28;;;10.22;100.00
21658;BME280;10990;48.174;9.782;2022-10-31T00:34:50;92843.53;;;10.24;100.00
21658;BME280;10990;48.174;9.782;2022-10-31T00:37:18;92864.88;;;9.97;100.00
21658;BME280;10990;48.174;9.782;2022-10-31T00:39:45;92863.09;;;9.91;100.00
21658;BME280;10990;48.174;9.782;2022-10-31T00:42:14;92863.47;;;9.95;100.00
21658;BME280;10990;48.174;9.782;2022-10-31T00:44:42;92862.06;;;9.92;100.00
21658;BME280;10990;48.174;9.782;2022-10-31T00:47:10;92857.25;;;9.82;100.00
21658;BME280;10990;48.174;9.782;2022-10-31T00:49:37;92840.31;;;9.97;100.00
21658;BME280;10990;48.174;9.782;2022-10-31T00:52:04;92819.13;;;10.03;100.00
21658;BME280;10990;48.174;9.782;2022-10-31T00:54:31;92824.47;;;9.97;100.00
21658;BME280;10990;48.174;9.782;2022-10-31T00:56:57;92788.69;;;10.01;100.00
21658;BME280;10990;48.174;9.782;2022-10-31T00:59:24;92780.34;;;10.04;100.00
21658;BME280;10990;48.174;9.782;2022-10-31T01:01:51;92796.41;;;9.77;100.00
21658;BME280;10990;48.174;9.782;2022-10-31T01:04:19;92794.22;;;9.68;100.00
21658;BME280;10990;48.174;9.782;2022-10-31T01:06:48;92760.28;;;9.96;100.00
21658;BME280;10990;48.174;9.782;2022-10-31T01:09:15;92779.47;;;9.85;100.00
21658;BME280;10990;48.174;9.782;2022-10-31T01:11:42;92791.66;;;9.86;100.00
21658;BME280;10990;48.174;9.782;2022-10-31T01:14:10;92803.88;;;9.80;100.00
21658;BME280;10990;48.174;9.782;2022-10-31T01:16:36;92813.50;;;9.68;100.00
21658;BME280;10990;48.174;9.782;2022-10-31T01:19:03;92799.31;;;9.69;100.00
21658;BME280;10990;48.174;9.782;2022-10-31T01:21:31;92797.84;;;9.73;100.00
21658;BME280;10990;48.174;9.782;2022-10-31T01:23:59;92815.78;;;9.64;100.00
21658;BME280;10990;48.174;9.782;2022-10-31T01:26:29;92799.34;;;9.87;100.00
21658;BME280;10990;48.174;9.782;2022-10-31T01:28:58;92814.19;;;9.88;100.00
21658;BME280;10990;48.174;9.782;2022-10-31T01:31:26;92838.41;;;9.79;100.00
21658;BME280;10990;48.174;9.782;2022-10-31T01:33:54;92866.31;;;9.61;100.00
21658;BME280;10990;48.174;9.782;2022-10-31T01:36:22;92896.88;;;9.44;100.00
21658;BME280;10990;48.174;9.782;2022-10-31T01:38:52;92860.44;;;9.66;100.00
21658;BME280;10990;48.174;9.782;2022-10-31T01:41:21;92887.50;;;9.48;100.00
21658;BME280;10990;48.174;9.782;2022-10-31T01:43:51;92898.34;;;9.33;100.00
21658;BME280;10990;48.174;9.782;2022-10-31T01:46:22;92895.75;;;9.27;100.00
21658;BME280;10990;48.174;9.782;2022-10-31T01:48:52;92868.84;;;9.50;100.00
21658;BME280;10990;48.174;9.782;2022-10-31T01:51:22;92899.97;;;9.28;100.00
21658;BME280;10990;48.174;9.782;2022-10-31T01:53:53;92887.97;;;9.32;100.00
21658;BME280;10990;48.174;9.782;2022-10-31T01:56:21;92866.44;;;9.41;100.00
21658;BME280;10990;48.174;9.782;2022-10-31T01:58:50;92888.34;;;9.42;100.00
21658;BME280;10990;48.174;9.782;2022-10-31T02:01:18;92888.06;;;9.57;100.00
21658;BME280;10990;48.174;9.782;2022-10-31T02:03:46;92915.19;;;9.32;100.00
21658;BME280;10990;48.174;9.782;2022-10-31T02:06:21;92891.97;;;9.48;100.00
21658;BME280;10990;48.174;9.782;2022-10-31T02:08:51;92901.22;;;9.25;100.00
21658;BME280;10990;48.174;9.782;2022-10-31T02:11:20;92898.75;;;9.30;100.00
21658;BME280;10990;48.174;9.782;2022-10-31T02:13:47;92892.81;;;9.41;100.00
21658;BME280;10990;48.174;9.782;2022-10-31T02:16:14;92901.50;;;9.49;100.00
21658;BME280;10990;48.174;9.782;2022-10-31T02:18:43;92902.75;;;9.46;100.00
21658;BME280;10990;48.174;9.782;2022-10-31T02:21:15;92915.16;;;9.39;100.00
21658;BME280;10990;48.174;9.782;2022-10-31T02:24:12;92907.63;;;9.42;100.00
21658;BME280;10990;48.174;9.782;2022-10-31T02:26:52;92886.28;;;9.51;100.00
21658;BME280;10990;48.174;9.782;2022-10-31T02:29:49;92876.56;;;9.45;100.00
21658;BME280;10990;48.174;9.782;2022-10-31T02:32:27;92885.84;;;9.15;100.00
21658;BME280;10990;48.174;9.782;2022-10-31T02:34:59;92866.78;;;9.13;100.00
21658;BME280;10990;48.174;9.782;2022-10-31T02:37:36;92833.72;;;9.11;100.00
21658;BME280;10990;48.174;9.782;2022-10-31T02:40:10;92839.94;;;8.85;100.00
21658;BME280;10990;48.174;9.782;2022-10-31T02:43:06;92760.84;;;8.91;100.00
21658;BME280;10990;48.174;9.782;2022-10-31T02:45:43;92702.91;;;9.16;100.00
21658;BME280;10990;48.174;9.782;2022-10-31T02:48:18;92689.25;;;8.94;100.00
21658;BME280;10990;48.174;9.782;2022-10-31T02:50:50;92600.53;;;9.32;100.00
21658;BME280;10990;48.174;9.782;2022-10-31T02:53:19;92576.34;;;9.16;100.00
21658;BME280;10990;48.174;9.782;2022-10-31T02:55:57;92535.28;;;9.27;100.00
21658;BME280;10990;48.174;9.782;2022-10-31T02:58:27;92541.63;;;9.01;100.00
21658;BME280;10990;48.174;9.782;2022-10-31T03:04:15;92537.19;;;8.70;100.00
21658;BME280;10990;48.174;9.782;2022-10-31T03:06:47;92513.63;;;8.82;100.00
21658;BME280;10990;48.174;9.782;2022-10-31T03:09:23;92458.44;;;9.05;100.00
21658;BME280;10990;48.174;9.782;2022-10-31T03:11:58;92435.88;;;9.28;100.00
21658;BME280;10990;48.174;9.782;2022-10-31T03:14:33;92439.56;;;9.27;100.00
21658;BME280;10990;48.174;9.782;2022-10-31T03:17:07;92439.38;;;9.40;100.00
21658;BME280;10990;48.174;9.782;2022-10-31T03:19:41;92471.69;;;9.17;100.00
21658;BME280;10990;48.174;9.782;2022-10-31T03:22:16;92459.31;;;9.17;100.00
21658;BME280;10990;48.174;9.782;2022-10-31T03:24:44;92449.81;;;9.16;100.00
21658;BME280;10990;48.174;9.782;2022-10-31T03:27:17;92453.38;;;9.04;100.00
21658;BME280;10990;48.174;9.782;2022-10-31T03:29:45;92437.34;;;9.05;100.00
21658;BME280;10990;48.174;9.782;2022-10-31T03:32:17;92419.41;;;9.14;100.00
21658;BME280;10990;48.174;9.782;2022-10-31T03:34:49;92437.88;;;8.95;100.00
21658;BME280;10990;48.174;9.782;2022-10-31T03:37:19;92414.38;;;9.12;100.00
21658;BME280;10990;48.174;9.782;2022-10-31T03:39:48;92425.47;;;9.14;100.00
21658;BME280;10990;48.174;9.782;2022-10-31T03:42:20;92438.25;;;8.99;100.00
21658;BME280;10990;48.174;9.782;2022-10-31T03:44:56;92449.66;;;8.93;100.00
21658;BME280;10990;48.174;9.782;2022-10-31T03:47:26;92438.59;;;9.03;100.00
21658;BME280;10990;48.174;9.782;2022-10-31T03:49:55;92434.94;;;9.04;100.00
21658;BME280;10990;48.174;9.782;2022-10-31T03:52:25;92431.94;;;9.00;100.00
21658;BME280;10990;48.174;9.782;2022-10-31T03:54:58;92413.78;;;9.10;100.00
21658;BME280;10990;48.174;9.782;2022-10-31T03:57:33;92412.59;;;9.06;100.00
21658;BME280;10990;48.174;9.782;2022-10-31T04:00:06;92405.13;;;9.03;100.00
21658;BME280;10990;48.174;9.782;2022-10-31T04:02:47;92416.41;;;8.73;100.00
21658;BME280;10990;48.174;9.782;2022-10-31T04:05:19;92392.47;;;8.75;100.00
21658;BME280;10990;48.174;9.782;2022-10-31T04:07:51;92367.81;;;8.69;100.00
21658;BME280;10990;48.174;9.782;2022-10-31T04:10:21;92316.50;;;8.90;100.00
21658;BME280;10990;48.174;9.782;2022-10-31T04:12:52;92298.72;;;8.86;100.00
21658;BME280;10990;48.174;9.782;2022-10-31T04:15:25;92314.41;;;8.62;100.00
21658;BME280;10990;48.174;9.782;2022-10-31T04:17:55;92265.34;;;8.80;100.00
21658;BME280;10990;48.174;9.782;2022-10-31T04:20:31;92262.38;;;8.58;100.00
21658;BME280;10990;48.174;9.782;2022-10-31T04:22:58;92214.31;;;8.62;100.00
21658;BME280;10990;48.174;9.782;2022-10-31T04:25:25;92109.47;;;8.83;100.00
21658;BME280;10990;48.174;9.782;2022-10-31T04:27:53;92041.19;;;8.69;100.00
21658;BME280;10990;48.174;9.782;2022-10-31T04:30:22;91977.03;;;8.75;100.00
21658;BME280;10990;48.174;9.782;2022-10-31T04:32:49;91950.38;;;8.72;100.00
21658;BME280;10990;48.174;9.782;2022-10-31T04:35:17;91914.19;;;8.79;100.00
21658;BME280;10990;48.174;9.782;2022-10-31T04:37:46;91939.25;;;8.58;100.00
21658;BME280;10990;48.174;9.782;2022-10-31T04:40:13;91935.63;;;8.59;100.00
21658;BME280;10990;48.174;9.782;2022-10-31T04:42:58;91894.28;;;8.60;100.00
21658;BME280;10990;48.174;9.782;2022-10-31T04:45:25;91869.53;;;8.49;100.00
21658;BME280;10990;48.174;9.782;2022-10-31T04:47:53;91793.03;;;8.67;100.00
21658;BME280;10990;48.174;9.782;2022-10-31T04:50:20;91766.25;;;8.70;100.00
21658;BME280;10990;48.174;9.782;2022-10-31T04:52:48;91771.63;;;8.64;100.00
21658;BME280;10990;48.174;9.782;2022-10-31T04:55:19;91771.28;;;8.60;100.00
21658;BME280;10990;48.174;9.782;2022-10-31T04:58:14;91732.66;;;8.78;100.00
21658;BME280;10990;48.174;9.782;2022-10-31T05:00:43;91737.22;;;8.82;100.00
21658;BME280;10990;48.174;9.782;2022-10-31T05:03:11;91766.13;;;8.65;100.00
21658;BME280;10990;48.174;9.782;2022-10-31T05:05:38;91760.03;;;8.77;100.00
21658;BME280;10990;48.174;9.782;2022-10-31T05:08:06;91789.59;;;8.67;100.00
21658;BME280;10990;48.174;9.782;2022-10-31T05:10:33;91805.84;;;8.64;100.00
21658;BME280;10990;48.174;9.782;2022-10-31T05:13:02;91797.84;;;8.70;100.00
21658;BME280;10990;48.174;9.782;2022-10-31T05:15:49;91786.47;;;8.70;100.00
21658;BME280;10990;48.174;9.782;2022-10-31T05:18:34;91765.28;;;8.77;100.00
21658;BME280;10990;48.174;9.782;2022-10-31T05:21:24;91714.88;;;8.85;100.00
21658;BME280;10990;48.174;9.782;2022-10-31T05:23:55;91707.91;;;8.79;100.00
21658;BME280;10990;48.174;9.782;2022-10-31T05:26:23;91688.81;;;8.71;100.00
21658;BME280;10990;48.174;9.782;2022-10-31T05:28:53;91681.56;;;8.50;100.00
21658;BME280;10990;48.174;9.782;2022-10-31T05:31:19;91643.50;;;8.41;100.00
21658;BME280;10990;48.174;9.782;2022-10-31T05:33:48;91580.31;;;8.41;100.00
21658;BME280;10990;48.174;9.782;2022-10-31T05:36:33;92611.63;;;8.59;100.00
21658;BME280;10990;48.174;9.782;2022-10-31T05:39:11;92633.22;;;8.36;100.00
21658;BME280;10990;48.174;9.782;2022-10-31T05:41:52;92621.00;;;8.55;100.00
21658;BME280;10990;48.174;9.782;2022-10-31T05:44:22;92639.63;;;8.53;100.00
21658;BME280;10990;48.174;9.782;2022-10-31T05:47:18;92673.31;;;8.44;100.00
21658;BME280;10990;48.174;9.782;2022-10-31T05:50:24;92718.09;;;8.38;100.00
21658;BME280;10990;48.174;9.782;2022-10-31T05:53:00;92782.94;;;8.19;100.00
21658;BME280;10990;48.174;9.782;2022-10-31T05:55:34;92813.34;;;8.15;100.00
21658;BME280;10990;48.174;9.782;2022-10-31T05:58:13;92819.59;;;8.20;100.00
21658;BME280;10990;48.174;9.782;2022-10-31T06:00:47;92849.78;;;8.11;100.00
21658;BME280;10990;48.174;9.782;2022-10-31T06:03:15;92886.41;;;8.13;100.00
21658;BME280;10990;48.174;9.782;2022-10-31T06:05:45;92931.34;;;8.04;100.00
21658;BME280;10990;48.174;9.782;2022-10-31T06:08:13;92938.47;;;8.24;100.00
21658;BME280;10990;48.174;9.782;2022-10-31T06:10:42;92973.28;;;8.13;100.00
21658;BME280;10990;48.174;9.782;2022-10-31T06:13:10;92991.50;;;8.01;100.00
21658;BME280;10990;48.174;9.782;2022-10-31T06:15:42;93004.25;;;8.04;100.00
21658;BME280;10990;48.174;9.782;2022-10-31T06:18:10;92996.38;;;8.17;100.00
21658;BME280;10990;48.174;9.782;2022-10-31T06:20:46;92973.91;;;8.35;100.00
21658;BME280;10990;48.174;9.782;2022-10-31T06:23:13;93027.75;;;8.12;100.00
21658;BME280;10990;48.174;9.782;2022-10-31T06:25:43;93027.97;;;8.17;100.00
21658;BME280;10990;48.174;9.782;2022-10-31T06:28:14;93046.75;;;8.07;100.00
21658;BME280;10990;48.174;9.782;2022-10-31T06:30:49;93033.84;;;8.32;100.00
21658;BME280;10990;48.174;9.782;2022-10-31T06:33:16;93054.78;;;8.41;100.00
21658;BME280;10990;48.174;9.782;2022-10-31T06:35:53;93070.50;;;8.21;100.00
21658;BME280;10990;48.174;9.782;2022-10-31T06:38:21;93050.94;;;8.43;100.00
21658;BME280;10990;48.174;9.782;2022-10-31T06:40:49;93040.63;;;8.68;100.00
21658;BME280;10990;48.174;9.782;2022-10-31T06:43:21;93049.13;;;8.84;100.00
21658;BME280;10990;48.174;9.782;2022-10-31T06:45:55;93055.22;;;9.04;100.00
21658;BME280;10990;48.174;9.782;2022-10-31T06:48:25;93094.53;;;8.99;100.00
21658;BME280;10990;48.174;9.782;2022-10-31T06:51:18;93106.31;;;8.90;100.00
21658;BME280;10990;48.174;9.782;2022-10-31T06:53:46;93105.28;;;9.04;100.00
21658;BME280;10990;48.174;9.782;2022-10-31T06:56:17;93143.41;;;8.82;100.00
21658;BME280;10990;48.174;9.782;2022-10-31T06:58:48;93122.31;;;9.08;100.00
21658;BME280;10990;48.174;9.782;2022-10-31T07:01:18;93118.25;;;9.26;100.00
21658;BME280;10990;48.174;9.782;2022-10-31T07:03:46;93141.59;;;9.22;100.00
21658;BME280;10990;48.174;9.782;2022-10-31T07:06:13;93163.88;;;9.06;100.00
21658;BME280;10990;48.174;9.782;2022-10-31T07:08:40;93146.84;;;9.29;100.00
21658;BME280;10990;48.174;9.782;2022-10-31T07:11:07;93159.44;;;9.20;100.00
21658;BME280;10990;48.174;9.782;2022-10-31T07:13:36;93140.56;;;9.50;100.00
21658;BME280;10990;48.174;9.782;2022-10-31T07:16:06;93134.03;;;9.65;100.00
21658;BME280;10990;48.174;9.782;2022-10-31T07:18:36;93142.16;;;9.71;100.00
21658;BME280;10990;48.174;9.782;2022-10-31T07:21:03;93131.38;;;9.85;100.00
21658;BME280;10990;48.174;9.782;2022-10-31T07:23:30;93139.66;;;10.02;100.00
21658;BME280;10990;48.174;9.782;2022-10-31T07:26:30;93146.72;;;10.08;100.00
21658;BME280;10990;48.174;9.782;2022-10-31T07:28:58;93161.16;;;10.06;100.00
21658;BME280;10990;48.174;9.782;2022-10-31T07:31:27;93161.50;;;10.23;100.00
21658;BME280;10990;48.174;9.782;2022-10-31T07:33:58;93195.69;;;10.04;100.00
21658;BME280;10990;48.174;9.782;2022-10-31T07:36:24;93171.03;;;10.24;100.00
21658;BME280;10990;48.174;9.782;2022-10-31T07:38:54;93167.59;;;10.30;100.00
21658;BME280;10990;48.174;9.782;2022-10-31T07:41:21;93161.31;;;10.31;100.00
21658;BME280;10990;48.174;9.782;2022-10-31T07:43:48;93151.50;;;10.45;100.00
21658;BME280;10990;48.174;9.782;2022-10-31T07:46:16;93138.56;;;10.68;100.00
21658;BME280;10990;48.174;9.782;2022-10-31T07:49:02;93171.97;;;10.49;100.00
21658;BME280;10990;48.174;9.782;2022-10-31T07:51:55;93127.13;;;11.06;100.00
21658;BME280;10990;48.174;9.782;2022-10-31T07:54:40;93106.00;;;11.50;100.00
21658;BME280;10990;48.174;9.782;2022-10-31T07:57:08;93140.41;;;11.75;100.00
21658;BME280;10990;48.174;9.782;2022-10-31T07:59:36;93126.75;;;12.33;100.00
21658;BME280;10990;48.174;9.782;2022-10-31T08:02:07;93167.69;;;12.37;100.00
21658;BME280;10990;48.174;9.782;2022-10-31T08:04:46;93209.63;;;12.22;100.00
21658;BME280;10990;48.174;9.782;2022-10-31T08:07:39;93269.91;;;11.76;100.00
21658;BME280;10990;48.174;9.782;2022-10-31T08:10:12;93275.91;;;11.65;100.00
21658;BME280;10990;48.174;9.782;2022-10-31T08:12:39;93254.94;;;11.95;100.00
21658;BME280;10990;48.174;9.782;2022-10-31T08:15:08;93249.09;;;12.30;100.00
21658;BME280;10990;48.174;9.782;2022-10-31T08:17:37;93286.78;;;12.32;100.00
21658;BME280;10990;48.174;9.782;2022-10-31T08:20:05;93298.13;;;12.64;100.00
21658;BME280;10990;48.174;9.782;2022-10-31T08:22:38;93332.28;;;12.72;100.00
21658;BME280;10990;48.174;9.782;2022-10-31T08:25:05;93317.22;;;13.70;100.00
21658;BME280;10990;48.174;9.782;2022-10-31T08:27:32;93464.03;;;13.04;100.00
21658;BME280;10990;48.174;9.782;2022-10-31T08:30:00;93465.38;;;13.68;100.00
21658;BME280;10990;48.174;9.782;2022-10-31T08:32:27;93510.53;;;13.68;100.00
21658;BME280;10990;48.174;9.782;2022-10-31T08:34:58;93528.19;;;13.81;100.00
21658;BME280;10990;48.174;9.782;2022-10-31T08:37:31;93528.22;;;14.29;100.00
21658;BME280;10990;48.174;9.782;2022-10-31T08:39:57;93527.66;;;14.09;100.00
21658;BME280;10990;48.174;9.782;2022-10-31T08:42:24;93426.97;;;14.01;100.00
21658;BME280;10990;48.174;9.782;2022-10-31T08:44:51;92715.03;;;13.99;100.00
21658;BME280;10990;48.174;9.782;2022-10-31T08:47:20;92729.00;;;14.45;100.00
21658;BME280;10990;48.174;9.782;2022-10-31T08:49:47;92782.31;;;14.72;100.00
21658;BME280;10990;48.174;9.782;2022-10-31T08:52:16;92829.97;;;15.35;100.00
21658;BME280;10990;48.174;9.782;2022-10-31T08:54:46;92977.97;;;15.14;100.00
21658;BME280;10990;48.174;9.782;2022-10-31T08:57:31;93025.44;;;15.56;100.00
21658;BME280;10990;48.174;9.782;2022-10-31T08:59:58;93084.44;;;16.20;100.00
21658;BME280;10990;48.174;9.782;2022-10-31T09:02:54;93188.53;;;16.86;100.00
21658;BME280;10990;48.174;9.782;2022-10-31T09:05:21;93367.75;;;16.10;100.00
21658;BME280;10990;48.174;9.782;2022-10-31T09:07:49;93412.44;;;17.16;100.00
21658;BME280;10990;48.174;9.782;2022-10-31T09:10:17;93511.94;;;16.78;100.00
21658;BME280;10990;48.174;9.782;2022-10-31T09:12:44;93582.19;;;16.67;100.00
21658;BME280;10990;48.174;9.782;2022-10-31T09:15:27;93597.56;;;16.88;100.00
21658;BME280;10990;48.174;9.782;2022-10-31T09:18:08;93626.03;;;16.83;100.00
21658;BME280;10990;48.174;9.782;2022-10-31T09:20:48;93671.78;;;16.63;100.00
21658;BME280;10990;48.174;9.782;2022-10-31T09:23:19;93677.75;;;16.53;100.00
21658;BME280;10990;48.174;9.782;2022-10-31T09:25:48;93727.97;;;16.44;100.00
21658;BME280;10990;48.174;9.782;2022-10-31T09:28:27;93770.91;;;16.19;100.00
21658;BME280;10990;48.174;9.782;2022-10-31T09:30:59;93783.63;;;15.45;100.00
21658;BME280;10990;48.174;9.782;2022-10-31T09:33:52;93737.72;;;16.39;100.00
21658;BME280;10990;48.174;9.782;2022-10-31T09:36:35;93800.19;;;15.65;100.00
21658;BME280;10990;48.174;9.782;2022-10-31T09:39:04;93760.44;;;15.94;100.00
21658;BME280;10990;48.174;9.782;2022-10-31T09:41:47;93777.75;;;16.50;100.00
21658;BME280;10990;48.174;9.782;2022-10-31T09:44:21;93814.13;;;16.21;100.00
21658;BME280;10990;48.174;9.782;2022-10-31T09:47:00;93818.59;;;15.85;100.00
21658;BME280;10990;48.174;9.782;2022-10-31T09:49:47;93791.75;;;15.20;100.00
21658;BME280;10990;48.174;9.782;2022-10-31T09:52:20;93752.50;;;15.15;100.00
21658;BME280;10990;48.174;9.782;2022-10-31T09:54:53;93710.22;;;15.37;100.00
21658;BME280;10990;48.174;9.782;2022-10-31T09:57:25;93702.16;;;15.25;100.00
21658;BME280;10990;48.174;9.782;2022-10-31T09:59:53;93674.81;;;15.18;100.00
21658;BME280;10990;48.174;9.782;2022-10-31T10:02:25;93649.84;;;14.71;100.00
21658;BME280;10990;48.174;9.782;2022-10-31T10:04:58;93584.88;;;14.78;100.00
21658;BME280;10990;48.174;9.782;2022-10-31T10:07:37;93512.16;;;15.20;100.00
21658;BME280;10990;48.174;9.782;2022-10-31T10:10:33;93476.72;;;15.08;100.00
21658;BME280;10990;48.174;9.782;2022-10-31T10:13:32;93428.69;;;15.26;100.00
21658;BME280;10990;48.174;9.782;2022-10-31T10:16:14;93371.69;;;15.91;100.00
21658;BME280;10990;48.174;9.782;2022-10-31T10:18:52;93408.16;;;15.90;100.00
21658;BME280;10990;48.174;9.782;2022-10-31T10:21:28;93450.59;;;15.92;100.00
21658;BME280;10990;48.174;9.782;2022-10-31T10:24:08;93461.75;;;16.18;100.00
21658;BME280;10990;48.174;9.782;2022-10-31T10:26:42;93516.88;;;16.00;100.00
21658;BME280;10990;48.174;9.782;2022-10-31T10:29:28;93506.91;;;16.36;100.00
21658;BME280;10990;48.174;9.782;2022-10-31T10:32:00;93554.81;;;16.31;100.00
21658;BME280;10990;48.174;9.782;2022-10-31T10:34:31;93556.03;;;16.11;100.00
21658;BME280;10990;48.174;9.782;2022-10-31T10:37:03;93520.00;;;16.38;100.00
21658;BME280;10990;48.174;9.782;2022-10-31T10:39:35;93541.75;;;16.18;100.00
21658;BME280;10990;48.174;9.782;2022-10-31T10:42:11;93545.94;;;16.02;100.00
21658;BME280;10990;48.174;9.782;2022-10-31T10:44:56;93561.94;;;16.02;100.00
21658;BME280;10990;48.174;9.782;2022-10-31T10:47:43;93546.31;;;16.46;100.00
21658;BME280;10990;48.174;9.782;2022-10-31T10:50:14;93562.31;;;15.94;100.00
21658;BME280;10990;48.174;9.782;2022-10-31T10:52:49;93506.13;;;16.24;100.00
21658;BME280;10990;48.174;9.782;2022-10-31T10:55:26;93495.88;;;16.04;100.00
21658;BME280;10990;48.174;9.782;2022-10-31T10:58:00;93445.41;;;16.43;100.00
21658;BME280;10990;48.174;9.782;2022-10-31T11:00:30;93439.13;;;16.20;100.00
21658;BME280;10990;48.174;9.782;2022-10-31T11:02:57;93411.19;;;16.40;100.00
21658;BME280;10990;48.174;9.782;2022-10-31T11:05:28;93391.97;;;16.38;100.00
21658;BME280;10990;48.174;9.782;2022-10-31T11:07:57;93357.53;;;16.36;100.00
21658;BME280;10990;48.174;9.782;2022-10-31T11:10:23;93312.31;;;16.63;100.00
21658;BME280;10990;48.174;9.782;2022-10-31T11:13:03;93312.09;;;16.48;100.00
21658;BME280;10990;48.174;9.782;2022-10-31T11:15:33;93284.13;;;16.50;100.00
21658;BME280;10990;48.174;9.782;2022-10-31T11:18:01;93258.72;;;16.48;100.00
21658;BME280;10990;48.174;9.782;2022-10-31T11:20:31;93245.44;;;15.97;100.00
21658;BME280;10990;48.174;9.782;2022-10-31T11:23:25;93195.41;;;15.87;100.00
21658;BME280;10990;48.174;9.782;2022-10-31T11:25:55;93134.81;;;16.17;100.00
21658;BME280;10990;48.174;9.782;2022-10-31T11:28:24;93099.81;;;16.13;100.00
21658;BME280;10990;48.174;9.782;2022-10-31T11:30:54;93064.19;;;16.19;100.00
21658;BME280;10990;48.174;9.782;2022-10-31T11:33:25;93075.66;;;16.20;100.00
21658;BME280;10990;48.174;9.782;2022-10-31T11:35:53;93030.25;;;16.64;100.00
21658;BME280;10990;48.174;9.782;2022-10-31T11:38:23;93035.13;;;16.72;100.00
21658;BME280;10990;48.174;9.782;2022-10-31T11:40:52;93035.00;;;16.84;100.00
21658;BME280;10990;48.174;9.782;2022-10-31T11:43:20;93042.72;;;16.80;100.00
21658;BME280;10990;48.174;9.782;2022-10-31T11:45:49;93020.75;;;16.73;100.00
21658;BME280;10990;48.174;9.782;2022-10-31T11:48:17;93010.88;;;17.00;100.00
21658;BME280;10990;48.174;9.782;2022-10-31T11:50:48;93038.31;;;16.69;100.00
21658;BME280;10990;48.174;9.782;2022-10-31T11:53:17;93013.28;;;16.75;100.00
21658;BME280;10990;48.174;9.782;2022-10-31T11:55:45;93020.34;;;16.59;100.00
21658;BME280;10990;48.174;9.782;2022-10-31T11:58:24;92994.75;;;16.63;100.00
21658;BME280;10990;48.174;9.782;2022-10-31T12:00:54;92981.88;;;17.09;100.00
21658;BME280;10990;48.174;9.782;2022-10-31T12:03:42;93009.66;;;17.13;100.00
21658;BME280;10990;48.174;9.782;2022-10-31T12:06:15;93054.72;;;17.05;100.00
21658;BME280;10990;48.174;9.782;2022-10-31T12:08:44;93054.81;;;16.66;100.00
21658;BME280;10990;48.174;9.782;2022-10-31T12:11:23;93023.09;;;16.69;100.00
21658;BME280;10990;48.174;9.782;2022-10-31T12:14:06;93004.75;;;16.73;100.00
21658;BME280;10990;48.174;9.782;2022-10-31T12:16:44;92965.91;;;16.60;100.00
21658;BME280;10990;48.174;9.782;2022-10-31T12:19:23;92943.25;;;16.63;100.00
21658;BME280;10990;48.174;9.782;2022-10-31T12:22:08;92910.00;;;16.43;100.00
21658;BME280;10990;48.174;9.782;2022-10-31T12:27:34;92863.34;;;16.46;100.00
21658;BME280;10990;48.174;9.782;2022-10-31T12:30:15;92839.56;;;16.39;100.00
21658;BME280;10990;48.174;9.782;2022-10-31T12:33:03;92807.63;;;16.49;100.00
21658;BME280;10990;48.174;9.782;2022-10-31T12:35:40;92837.19;;;16.43;100.00
21658;BME280;10990;48.174;9.782;2022-10-31T12:38:29;92833.41;;;16.39;100.00
21658;BME280;10990;48.174;9.782;2022-10-31T12:41:18;92805.19;;;16.80;100.00
21658;BME280;10990;48.174;9.782;2022-10-31T12:43:55;92809.31;;;16.98;100.00
21658;BME280;10990;48.174;9.782;2022-10-31T12:46:28;92854.63;;;16.88;100.00
21658;BME280;10990;48.174;9.782;2022-10-31T12:49:12;92869.44;;;16.73;100.00
21658;BME280;10990;48.174;9.782;2022-10-31T12:51:51;92846.16;;;17.01;100.00
21658;BME280;10990;48.174;9.782;2022-10-31T12:54:29;92862.97;;;17.01;100.00
21658;BME280;10990;48.174;9.782;2022-10-31T12:57:08;92901.34;;;16.90;100.00
21658;BME280;10990;48.174;9.782;2022-10-31T12:59:42;92932.34;;;16.64;100.00
21658;BME280;10990;48.174;9.782;2022-10-31T13:02:16;92915.59;;;16.74;100.00
21658;BME280;10990;48.174;9.782;2022-10-31T13:04:49;92927.66;;;16.76;100.00
21658;BME280;10990;48.174;9.782;2022-10-31T13:07:23;92930.53;;;16.75;100.00
21658;BME280;10990;48.174;9.782;2022-10-31T13:10:06;92920.28;;;16.89;100.00
21658;BME280;10990;48.174;9.782;2022-10-31T13:12:36;92914.78;;;17.06;100.00
21658;BME280;10990;48.174;9.782;2022-10-31T13:15:11;92937.09;;;16.89;100.00
21658;BME280;10990;48.174;9.782;2022-10-31T13:17:42;92938.59;;;17.07;100.00
21658;BME280;10990;48.174;9.782;2022-10-31T13:20:20;92955.16;;;17.09;100.00
21658;BME280;10990;48.174;9.782;2022-10-31T13:22:51;92930.78;;;17.38;100.00
21658;BME280;10990;48.174;9.782;2022-10-31T13:25:23;92997.81;;;17.36;100.00
21658;BME280;10990;48.174;9.782;2022-10-31T13:27:54;93028.22;;;17.30;100.00
21658;BME280;10990;48.174;9.782;2022-10-31T13:30:25;93050.78;;;17.12;100.00